Columbia, Washington
Current Conditions -  °F | °C
As of 8:53 AM on Thursday 23 Oct 2014 (Local Time) from KBFI Reporting Station
Light Rain Light Rain  
Wind Chill: 53°   Ceiling: 6000
Heat Index: 53°   Visibility: 10mi
Dew Point: 48°   Wind: 8mph
Humidity: 83%   Direction: 170°S
Pressure: 29.76"   Gusts: NA
Location:  47.5384°N, 122.277°W
Report Text: KBFI 231553Z 17007KT 10SM -RA BKN060 OVC075 12/09 A2976 RMK AO2 SLP077 P0002 T01170089
Loading
Personal Weather Stations






























Interactive Weather Map
Tropical Storm Tracking
New forecast layout! Learn more

10-Day Weather Forecast

Advertisements
Track Severe Weather on mobile